Terminal Aerodrome Forecast
Issued by NWS

Home | Current Version | Previous Version | Text Only | Print | Product List | Glossary On
Versions: 1 2 3 4 5 6 7 8 9 10 11 12 13 14 15 16 17 18
000
FTUS44 KTSA 222106 AAA
TAFBVO
TAF AMD
KBVO 222106Z 2221/2318 10006KT 3SM -RA BR OVC005
      TEMPO 2221/2224 2SM RA BR
     FM230100 VRB03KT 4SM BR OVC005
     FM230900 VRB03KT 1SM BR OVC003=

USA.gov is the U.S. government's official web portal to all federal, state and local government web resources and services.